DLH73E EDDM-KBOS
Flight info
| Callsign | DLH73E |
|---|---|
| Flight time | N/A |
| Altitude | 36000 |
| Route | GIVMI6E/08R EDDM/08R GIVMI DCT ERMEL Y101 INBED DCT REKDI DCT LOHRE DCT BUB L608 DENUT DCT BULAM DCT RAPIX DCT KOPUL Q60 OKSAW DCT FELCA DCT OFSOX L9 SLANY DCT OLGON DCT NEBIN DCT 5335N DCT BUDAR N436B ALLEX Q822 AJJAY OOSHN5 KBOS/I33L |
| Aircraft | A388/J-SDE3FGHIRWY/LB1 |
Departure
| Time | 2026-05-01 13:07 |
|---|---|
| Airport | Munich Airport (EDDM) |
Arrival
| Time | N/A |
|---|---|
| Airport | Boston Logan International Airport (KBOS) |
| Time | Latitude | Longitude | Altitude | Speed | Heading |
|---|---|---|---|---|---|
| 2026-05-01 11:57 | 48.35259 | 11.77924 | 1461 ft | 0 kts | 82° |
| 2026-05-01 12:42 | 48.35259 | 11.77918 | 1471 ft | 0 kts | 82° |
| 2026-05-01 12:42 | 48.35258 | 11.77907 | 1460 ft | 2 kts | 82° |
| 2026-05-01 12:43 | 48.35255 | 11.77889 | 1460 ft | 2 kts | 73° |
| 2026-05-01 12:43 | 48.35246 | 11.77869 | 1460 ft | 2 kts | 47° |
| 2026-05-01 12:43 | 48.35234 | 11.77858 | 1460 ft | 2 kts | 24° |
| 2026-05-01 12:43 | 48.35222 | 11.77853 | 1460 ft | 2 kts | 9° |
| 2026-05-01 12:44 | 48.35209 | 11.77852 | 1460 ft | 2 kts | 2° |
| 2026-05-01 12:44 | 48.35203 | 11.77853 | 1460 ft | 0 kts | 354° |
| 2026-05-01 12:49 | 48.35223 | 11.77849 | 1460 ft | 6 kts | 349° |
| 2026-05-01 12:50 | 48.35283 | 11.77830 | 1467 ft | 11 kts | 348° |
| 2026-05-01 12:50 | 48.35369 | 11.77784 | 1462 ft | 15 kts | 342° |
| 2026-05-01 12:50 | 48.35486 | 11.77748 | 1463 ft | 19 kts | 358° |
| 2026-05-01 12:50 | 48.35620 | 11.77744 | 1471 ft | 19 kts | 4° |
| 2026-05-01 12:51 | 48.35720 | 11.77748 | 1466 ft | 8 kts | 339° |
| 2026-05-01 12:51 | 48.35786 | 11.77711 | 1462 ft | 12 kts | 342° |
| 2026-05-01 12:51 | 48.35949 | 11.77638 | 1468 ft | 13 kts | 306° |
| 2026-05-01 12:52 | 48.35956 | 11.77518 | 1470 ft | 14 kts | 265° |
| 2026-05-01 12:52 | 48.35925 | 11.77150 | 1465 ft | 20 kts | 279° |
| 2026-05-01 12:52 | 48.36010 | 11.76983 | 1464 ft | 21 kts | 348° |
| 2026-05-01 12:53 | 48.36052 | 11.76971 | 1461 ft | 0 kts | 350° |
| 2026-05-01 12:54 | 48.36104 | 11.76959 | 1463 ft | 16 kts | 352° |
| 2026-05-01 12:54 | 48.36131 | 11.76954 | 1468 ft | 0 kts | 352° |
| 2026-05-01 13:07 | 48.36403 | 11.78344 | 1468 ft | 136 kts | 83° |
| 2026-05-01 13:07 | 48.36523 | 11.79920 | 1778 ft | 159 kts | 83° |
| 2026-05-01 13:07 | 48.36649 | 11.81612 | 2318 ft | 166 kts | 84° |
| 2026-05-01 13:08 | 48.36774 | 11.83362 | 2765 ft | 176 kts | 84° |
| 2026-05-01 13:08 | 48.36916 | 11.85251 | 2900 ft | 189 kts | 84° |
| 2026-05-01 13:08 | 48.37080 | 11.87344 | 3033 ft | 215 kts | 84° |
| 2026-05-01 13:08 | 48.37263 | 11.89711 | 3361 ft | 241 kts | 84° |
| 2026-05-01 13:09 | 48.37458 | 11.92252 | 4137 ft | 246 kts | 83° |
| 2026-05-01 13:09 | 48.37663 | 11.94830 | 5009 ft | 249 kts | 85° |
| 2026-05-01 13:09 | 48.37989 | 11.97421 | 5777 ft | 257 kts | 72° |
| 2026-05-01 13:09 | 48.38821 | 11.99863 | 6533 ft | 266 kts | 56° |
| 2026-05-01 13:10 | 48.40177 | 12.01765 | 6958 ft | 275 kts | 34° |
| 2026-05-01 13:10 | 48.41999 | 12.02668 | 7001 ft | 282 kts | 7° |
| 2026-05-01 13:10 | 48.43944 | 12.02281 | 7010 ft | 286 kts | 340° |
| 2026-05-01 13:10 | 48.45614 | 12.00626 | 7026 ft | 294 kts | 314° |
| 2026-05-01 13:11 | 48.46653 | 11.97954 | 7383 ft | 299 kts | 288° |
| 2026-05-01 13:11 | 48.47166 | 11.94922 | 8229 ft | 298 kts | 284° |
| 2026-05-01 13:11 | 48.47684 | 11.91965 | 9198 ft | 296 kts | 288° |
| 2026-05-01 13:11 | 48.48351 | 11.88993 | 9902 ft | 303 kts | 293° |
| 2026-05-01 13:12 | 48.49143 | 11.86054 | 10720 ft | 302 kts | 295° |
| 2026-05-01 13:12 | 48.49994 | 11.83144 | 11482 ft | 304 kts | 296° |
| 2026-05-01 13:12 | 48.50875 | 11.80219 | 12140 ft | 309 kts | 297° |
| 2026-05-01 13:12 | 48.51762 | 11.77290 | 12808 ft | 312 kts | 297° |
| 2026-05-01 13:13 | 48.52673 | 11.74281 | 13487 ft | 316 kts | 297° |
| 2026-05-01 13:13 | 48.53590 | 11.71242 | 14164 ft | 319 kts | 297° |
| 2026-05-01 13:13 | 48.54509 | 11.68184 | 14791 ft | 321 kts | 297° |
| 2026-05-01 13:13 | 48.55434 | 11.65100 | 15392 ft | 324 kts | 297° |
| 2026-05-01 13:14 | 48.56369 | 11.61979 | 15935 ft | 328 kts | 298° |
| 2026-05-01 13:14 | 48.57503 | 11.58991 | 16512 ft | 327 kts | 309° |
| 2026-05-01 13:14 | 48.58928 | 11.56369 | 17020 ft | 330 kts | 315° |
| 2026-05-01 13:14 | 48.60485 | 11.53669 | 17196 ft | 347 kts | 314° |
| 2026-05-01 13:15 | 48.62089 | 11.50836 | 17351 ft | 363 kts | 313° |
| 2026-05-01 13:15 | 48.63764 | 11.47858 | 17530 ft | 378 kts | 313° |
| 2026-05-01 13:15 | 48.65482 | 11.44793 | 17942 ft | 384 kts | 313° |
| 2026-05-01 13:15 | 48.67214 | 11.41696 | 18503 ft | 387 kts | 313° |
| 2026-05-01 13:16 | 48.68995 | 11.38694 | 18987 ft | 387 kts | 320° |
| 2026-05-01 13:16 | 48.71103 | 11.36176 | 19437 ft | 386 kts | 330° |
| 2026-05-01 13:16 | 48.73481 | 11.34279 | 19941 ft | 384 kts | 340° |
| 2026-05-01 13:17 | 48.80899 | 11.29484 | 21346 ft | 390 kts | 339° |
| 2026-05-01 13:17 | 48.83399 | 11.27838 | 21815 ft | 392 kts | 339° |
| 2026-05-01 13:18 | 48.88415 | 11.24545 | 22729 ft | 396 kts | 339° |
| 2026-05-01 13:18 | 48.90956 | 11.22878 | 23184 ft | 398 kts | 339° |
| 2026-05-01 13:18 | 48.93503 | 11.21205 | 23643 ft | 400 kts | 339° |
| 2026-05-01 13:18 | 48.96070 | 11.19517 | 24053 ft | 402 kts | 339° |
| 2026-05-01 13:19 | 48.98646 | 11.17821 | 24422 ft | 404 kts | 339° |
| 2026-05-01 13:19 | 49.01236 | 11.16114 | 24759 ft | 407 kts | 339° |
| 2026-05-01 13:19 | 49.06418 | 11.12692 | 25534 ft | 410 kts | 339° |
| 2026-05-01 13:20 | 49.09046 | 11.10955 | 25936 ft | 412 kts | 339° |
| 2026-05-01 13:20 | 49.11695 | 11.09201 | 26304 ft | 415 kts | 339° |
| 2026-05-01 13:20 | 49.14326 | 11.07457 | 26714 ft | 417 kts | 338° |
| 2026-05-01 13:21 | 49.19718 | 11.03986 | 27586 ft | 420 kts | 343° |
| 2026-05-01 13:21 | 49.22504 | 11.02586 | 28014 ft | 423 kts | 343° |
| 2026-05-01 13:21 | 49.25310 | 11.01151 | 28387 ft | 428 kts | 343° |
| 2026-05-01 13:21 | 49.28111 | 10.99704 | 28869 ft | 429 kts | 343° |
| 2026-05-01 13:22 | 49.30958 | 10.98229 | 29330 ft | 432 kts | 343° |
| 2026-05-01 13:22 | 49.33826 | 10.96744 | 29776 ft | 434 kts | 343° |
| 2026-05-01 13:22 | 49.36636 | 10.94965 | 30184 ft | 440 kts | 333° |
| 2026-05-01 13:22 | 49.39177 | 10.92427 | 30607 ft | 445 kts | 323° |
| 2026-05-01 13:23 | 49.41436 | 10.89128 | 31015 ft | 450 kts | 313° |
| 2026-05-01 13:23 | 49.43405 | 10.85377 | 31413 ft | 453 kts | 311° |
| 2026-05-01 13:23 | 49.45396 | 10.81602 | 31810 ft | 455 kts | 311° |
| 2026-05-01 13:23 | 49.47407 | 10.77814 | 32171 ft | 458 kts | 311° |
| 2026-05-01 13:24 | 49.49424 | 10.74004 | 32610 ft | 459 kts | 311° |
| 2026-05-01 13:24 | 49.51417 | 10.70226 | 32954 ft | 462 kts | 311° |
| 2026-05-01 13:24 | 49.53446 | 10.66366 | 33334 ft | 464 kts | 310° |
| 2026-05-01 13:25 | 49.57531 | 10.58573 | 34086 ft | 469 kts | 310° |
| 2026-05-01 13:25 | 49.59587 | 10.54642 | 34460 ft | 471 kts | 310° |
| 2026-05-01 13:25 | 49.61654 | 10.50683 | 34745 ft | 475 kts | 310° |
| 2026-05-01 13:25 | 49.63725 | 10.46709 | 35070 ft | 477 kts | 310° |
| 2026-05-01 13:26 | 49.65779 | 10.42672 | 35475 ft | 478 kts | 307° |
| 2026-05-01 13:26 | 49.67618 | 10.38490 | 35964 ft | 475 kts | 306° |
| 2026-05-01 13:26 | 49.69483 | 10.34251 | 36294 ft | 477 kts | 306° |
| 2026-05-01 13:27 | 49.73235 | 10.25776 | 36353 ft | 477 kts | 306° |
| 2026-05-01 13:27 | 49.78832 | 10.13052 | 36346 ft | 479 kts | 305° |
| 2026-05-01 13:28 | 49.84431 | 10.00246 | 36333 ft | 478 kts | 305° |
| 2026-05-01 13:29 | 49.91817 | 9.83251 | 36280 ft | 474 kts | 305° |
| 2026-05-01 13:31 | 50.02759 | 9.57877 | 36324 ft | 470 kts | 305° |
| 2026-05-01 13:31 | 50.07398 | 9.44421 | 36332 ft | 477 kts | 291° |
| 2026-05-01 13:32 | 50.09387 | 9.34535 | 36330 ft | 477 kts | 287° |
| 2026-05-01 13:33 | 50.14150 | 9.09768 | 36304 ft | 477 kts | 287° |
| 2026-05-01 13:34 | 50.17881 | 8.89963 | 36310 ft | 476 kts | 287° |
| 2026-05-01 13:35 | 50.20648 | 8.75134 | 36323 ft | 475 kts | 287° |
| 2026-05-01 13:36 | 50.23402 | 8.60261 | 36315 ft | 475 kts | 287° |
| 2026-05-01 13:36 | 50.26132 | 8.45399 | 36297 ft | 476 kts | 287° |
| 2026-05-01 13:37 | 50.27942 | 8.35481 | 36301 ft | 477 kts | 287° |
| 2026-05-01 13:37 | 50.29758 | 8.25468 | 36320 ft | 476 kts | 286° |
| 2026-05-01 13:38 | 50.32446 | 8.10552 | 36346 ft | 475 kts | 286° |
| 2026-05-01 13:39 | 50.34221 | 8.00629 | 36324 ft | 475 kts | 286° |
| 2026-05-01 13:39 | 50.35999 | 7.90635 | 36341 ft | 474 kts | 286° |
| 2026-05-01 13:40 | 50.37755 | 7.80715 | 36324 ft | 474 kts | 285° |
| 2026-05-01 13:40 | 50.39518 | 7.70698 | 36319 ft | 475 kts | 285° |
| 2026-05-01 13:41 | 50.41254 | 7.60775 | 36331 ft | 474 kts | 285° |
| 2026-05-01 13:41 | 50.42995 | 7.50772 | 36302 ft | 474 kts | 285° |
| 2026-05-01 13:42 | 50.44725 | 7.40775 | 36276 ft | 475 kts | 285° |
| 2026-05-01 13:42 | 50.46440 | 7.30810 | 36304 ft | 475 kts | 285° |
| 2026-05-01 13:43 | 50.48152 | 7.20800 | 36281 ft | 475 kts | 285° |
| 2026-05-01 13:43 | 50.49851 | 7.10809 | 36289 ft | 476 kts | 285° |
| 2026-05-01 13:44 | 50.51552 | 7.00754 | 36301 ft | 476 kts | 284° |
| 2026-05-01 13:44 | 50.53243 | 6.90696 | 36279 ft | 476 kts | 284° |
| 2026-05-01 13:45 | 50.54927 | 6.80623 | 36265 ft | 476 kts | 284° |
| 2026-05-01 13:45 | 50.56593 | 6.70595 | 36261 ft | 476 kts | 284° |
| 2026-05-01 13:46 | 50.58253 | 6.60550 | 36253 ft | 476 kts | 284° |
| 2026-05-01 13:46 | 50.59911 | 6.50455 | 36225 ft | 476 kts | 284° |
| 2026-05-01 13:47 | 50.61561 | 6.40346 | 36238 ft | 477 kts | 284° |
| 2026-05-01 13:47 | 50.63193 | 6.30287 | 36256 ft | 476 kts | 284° |
| 2026-05-01 13:48 | 50.64827 | 6.20158 | 36249 ft | 476 kts | 283° |
| 2026-05-01 13:48 | 50.66454 | 6.10014 | 36240 ft | 477 kts | 283° |
| 2026-05-01 13:49 | 50.68062 | 5.99916 | 36224 ft | 477 kts | 283° |
| 2026-05-01 13:49 | 50.69665 | 5.89790 | 36225 ft | 478 kts | 283° |
| 2026-05-01 13:50 | 50.71269 | 5.79601 | 36228 ft | 479 kts | 282° |
| 2026-05-01 13:50 | 50.72867 | 5.69389 | 36241 ft | 480 kts | 283° |
| 2026-05-01 13:51 | 50.74460 | 5.59137 | 36223 ft | 481 kts | 283° |
| 2026-05-01 13:51 | 50.76036 | 5.48931 | 36236 ft | 481 kts | 282° |
| 2026-05-01 13:52 | 50.77618 | 5.38624 | 36240 ft | 481 kts | 282° |
| 2026-05-01 13:52 | 50.79183 | 5.28358 | 36247 ft | 482 kts | 282° |
| 2026-05-01 13:53 | 50.80742 | 5.18071 | 36252 ft | 481 kts | 282° |
| 2026-05-01 13:53 | 50.83058 | 5.02656 | 36238 ft | 482 kts | 282° |
| 2026-05-01 13:54 | 50.84600 | 4.92315 | 36242 ft | 483 kts | 282° |
| 2026-05-01 13:54 | 50.85881 | 4.83670 | 36245 ft | 483 kts | 281° |
| 2026-05-01 13:55 | 50.87405 | 4.73321 | 36246 ft | 484 kts | 282° |
| 2026-05-01 13:55 | 50.88925 | 4.62968 | 36223 ft | 485 kts | 281° |
| 2026-05-01 13:56 | 50.90938 | 4.52801 | 36229 ft | 488 kts | 293° |
| 2026-05-01 13:56 | 50.94289 | 4.43355 | 36235 ft | 490 kts | 300° |
| 2026-05-01 13:57 | 50.97818 | 4.34143 | 36243 ft | 491 kts | 300° |
| 2026-05-01 13:57 | 51.01351 | 4.24877 | 36241 ft | 492 kts | 300° |
| 2026-05-01 13:58 | 51.04902 | 4.15543 | 36233 ft | 492 kts | 300° |
| 2026-05-01 13:58 | 51.08429 | 4.06243 | 36229 ft | 492 kts | 300° |
| 2026-05-01 13:59 | 51.11957 | 3.96907 | 36217 ft | 491 kts | 300° |
| 2026-05-01 13:59 | 51.15451 | 3.87626 | 36209 ft | 491 kts | 299° |
| 2026-05-01 14:00 | 51.18966 | 3.78258 | 36204 ft | 491 kts | 299° |
| 2026-05-01 14:00 | 51.22272 | 3.68749 | 36193 ft | 490 kts | 292° |
| 2026-05-01 14:01 | 51.24520 | 3.58564 | 36192 ft | 487 kts | 282° |
| 2026-05-01 14:01 | 51.25934 | 3.47957 | 36195 ft | 487 kts | 280° |
| 2026-05-01 14:02 | 51.27335 | 3.37414 | 36200 ft | 488 kts | 280° |
| 2026-05-01 14:02 | 51.28716 | 3.26820 | 36207 ft | 488 kts | 279° |
| 2026-05-01 14:03 | 51.30080 | 3.16199 | 36213 ft | 488 kts | 279° |
| 2026-05-01 14:03 | 51.31439 | 3.05530 | 36215 ft | 488 kts | 279° |
| 2026-05-01 14:04 | 51.32783 | 2.94900 | 36213 ft | 487 kts | 279° |
| 2026-05-01 14:04 | 51.34109 | 2.84330 | 36204 ft | 487 kts | 279° |
| 2026-05-01 14:05 | 51.35431 | 2.73707 | 36192 ft | 487 kts | 278° |
| 2026-05-01 14:05 | 51.36750 | 2.63110 | 36190 ft | 487 kts | 279° |
| 2026-05-01 14:06 | 51.38069 | 2.52465 | 36189 ft | 486 kts | 278° |
| 2026-05-01 14:06 | 51.39372 | 2.41845 | 36188 ft | 486 kts | 278° |
| 2026-05-01 14:07 | 51.40666 | 2.31213 | 36187 ft | 486 kts | 278° |
| 2026-05-01 14:08 | 51.42582 | 2.15309 | 36194 ft | 486 kts | 278° |
| 2026-05-01 14:08 | 51.43853 | 2.04657 | 36183 ft | 487 kts | 278° |
| 2026-05-01 14:09 | 51.45114 | 1.93989 | 36195 ft | 487 kts | 278° |
| 2026-05-01 14:09 | 51.46360 | 1.83311 | 36191 ft | 487 kts | 277° |
| 2026-05-01 14:10 | 51.47591 | 1.72674 | 36190 ft | 487 kts | 277° |
| 2026-05-01 14:10 | 51.48820 | 1.61973 | 36198 ft | 487 kts | 277° |
| 2026-05-01 14:11 | 51.50031 | 1.51331 | 36190 ft | 487 kts | 277° |
| 2026-05-01 14:11 | 51.51844 | 1.35239 | 36196 ft | 487 kts | 277° |
| 2026-05-01 14:12 | 51.53034 | 1.24567 | 36190 ft | 487 kts | 277° |
| 2026-05-01 14:12 | 51.54204 | 1.13823 | 36178 ft | 486 kts | 275° |
| 2026-05-01 14:13 | 51.54788 | 1.04854 | 36180 ft | 485 kts | 272° |
| 2026-05-01 14:13 | 51.55596 | 0.92305 | 36184 ft | 485 kts | 273° |
| 2026-05-01 14:14 | 51.56278 | 0.81541 | 36180 ft | 486 kts | 272° |
| 2026-05-01 14:14 | 51.56946 | 0.70728 | 36184 ft | 486 kts | 272° |
| 2026-05-01 14:15 | 51.57604 | 0.59911 | 36188 ft | 485 kts | 272° |
| 2026-05-01 14:15 | 51.58248 | 0.49163 | 36185 ft | 485 kts | 272° |
| 2026-05-01 14:16 | 51.58884 | 0.38363 | 36172 ft | 485 kts | 272° |
| 2026-05-01 14:16 | 51.59511 | 0.27563 | 36156 ft | 485 kts | 272° |
| 2026-05-01 14:17 | 51.60127 | 0.16766 | 36156 ft | 485 kts | 272° |
| 2026-05-01 14:17 | 51.60731 | 0.06017 | 36154 ft | 484 kts | 272° |
| 2026-05-01 14:18 | 51.61328 | -0.04806 | 36154 ft | 484 kts | 272° |
| 2026-05-01 14:18 | 51.61819 | -0.13791 | 36152 ft | 484 kts | 272° |
| 2026-05-01 14:19 | 51.62594 | -0.26370 | 36152 ft | 484 kts | 273° |
| 2026-05-01 14:19 | 51.63263 | -0.37164 | 36153 ft | 484 kts | 273° |
| 2026-05-01 14:20 | 51.64227 | -0.53294 | 36152 ft | 484 kts | 272° |
| 2026-05-01 14:21 | 51.64859 | -0.64120 | 36152 ft | 484 kts | 272° |
| 2026-05-01 14:21 | 51.65478 | -0.74886 | 36148 ft | 484 kts | 272° |
| 2026-05-01 14:22 | 51.66393 | -0.91113 | 36130 ft | 484 kts | 272° |
| 2026-05-01 14:22 | 51.66987 | -1.01893 | 36134 ft | 484 kts | 272° |
| 2026-05-01 14:23 | 51.67574 | -1.12731 | 36132 ft | 484 kts | 272° |
| 2026-05-01 14:23 | 51.68148 | -1.23505 | 36130 ft | 484 kts | 272° |
| 2026-05-01 14:24 | 51.68715 | -1.34330 | 36126 ft | 483 kts | 272° |
| 2026-05-01 14:24 | 51.69268 | -1.45092 | 36138 ft | 483 kts | 272° |
| 2026-05-01 14:25 | 51.69814 | -1.55916 | 36123 ft | 483 kts | 272° |
| 2026-05-01 14:25 | 51.70351 | -1.66731 | 36125 ft | 483 kts | 272° |
| 2026-05-01 14:26 | 51.71431 | -1.82872 | 36136 ft | 484 kts | 275° |
| 2026-05-01 14:27 | 51.72241 | -1.93604 | 36144 ft | 484 kts | 274° |
| 2026-05-01 14:27 | 51.73013 | -2.04397 | 36161 ft | 484 kts | 274° |
| 2026-05-01 14:28 | 51.74135 | -2.20548 | 36159 ft | 483 kts | 274° |
| 2026-05-01 14:28 | 51.74873 | -2.31355 | 36155 ft | 483 kts | 274° |
| 2026-05-01 14:29 | 51.75598 | -2.42096 | 36155 ft | 483 kts | 273° |
| 2026-05-01 14:30 | 51.77021 | -2.63668 | 36164 ft | 482 kts | 272° |
| 2026-05-01 14:31 | 51.78061 | -2.79827 | 36162 ft | 483 kts | 272° |
| 2026-05-01 14:31 | 51.78739 | -2.90556 | 36134 ft | 483 kts | 272° |
| 2026-05-01 14:32 | 51.79415 | -3.01409 | 36134 ft | 483 kts | 272° |
| 2026-05-01 14:32 | 51.80076 | -3.12181 | 36134 ft | 482 kts | 272° |
| 2026-05-01 14:33 | 51.80724 | -3.22906 | 36142 ft | 482 kts | 271° |
| 2026-05-01 14:33 | 51.81368 | -3.33737 | 36159 ft | 482 kts | 271° |
| 2026-05-01 14:34 | 51.81998 | -3.44492 | 36158 ft | 483 kts | 271° |
| 2026-05-01 14:34 | 51.82706 | -3.55262 | 36177 ft | 486 kts | 276° |
| 2026-05-01 14:35 | 51.84109 | -3.66020 | 36181 ft | 488 kts | 277° |
| 2026-05-01 14:35 | 51.85503 | -3.76732 | 36185 ft | 488 kts | 277° |
| 2026-05-01 14:36 | 51.86882 | -3.87479 | 36189 ft | 489 kts | 277° |
| 2026-05-01 14:36 | 51.88255 | -3.98282 | 36184 ft | 490 kts | 277° |
| 2026-05-01 14:37 | 51.89611 | -4.09033 | 36187 ft | 490 kts | 277° |
| 2026-05-01 14:37 | 51.90963 | -4.19842 | 36188 ft | 490 kts | 276° |
| 2026-05-01 14:38 | 51.92316 | -4.30727 | 36180 ft | 490 kts | 276° |
| 2026-05-01 14:38 | 51.93646 | -4.41526 | 36197 ft | 491 kts | 276° |
| 2026-05-01 14:39 | 51.94968 | -4.52356 | 36182 ft | 491 kts | 276° |
| 2026-05-01 14:39 | 51.96285 | -4.63221 | 36165 ft | 491 kts | 276° |
| 2026-05-01 14:40 | 51.97586 | -4.74044 | 36175 ft | 491 kts | 276° |
| 2026-05-01 14:40 | 51.98888 | -4.84967 | 36171 ft | 491 kts | 276° |
| 2026-05-01 14:41 | 52.00171 | -4.95809 | 36166 ft | 492 kts | 275° |
| 2026-05-01 14:41 | 52.01447 | -5.06701 | 36168 ft | 492 kts | 275° |
| 2026-05-01 14:42 | 52.02722 | -5.17614 | 36169 ft | 492 kts | 276° |
| 2026-05-01 14:42 | 52.04719 | -5.28363 | 36168 ft | 498 kts | 283° |
| 2026-05-01 14:43 | 52.06876 | -5.38988 | 36171 ft | 498 kts | 283° |
| 2026-05-01 14:43 | 52.09019 | -5.49666 | 36173 ft | 498 kts | 283° |
| 2026-05-01 14:44 | 52.11164 | -5.60413 | 36170 ft | 498 kts | 283° |
| 2026-05-01 14:44 | 52.14351 | -5.76482 | 36168 ft | 498 kts | 282° |
| 2026-05-01 14:45 | 52.17552 | -5.92615 | 36190 ft | 499 kts | 283° |
| 2026-05-01 14:46 | 52.19736 | -6.03343 | 36156 ft | 500 kts | 283° |
| 2026-05-01 14:46 | 52.23018 | -6.19503 | 36148 ft | 500 kts | 283° |
| 2026-05-01 14:47 | 52.24815 | -6.28415 | 36152 ft | 500 kts | 283° |
| 2026-05-01 14:48 | 52.28047 | -6.44596 | 36174 ft | 500 kts | 282° |
| 2026-05-01 14:48 | 52.31252 | -6.60809 | 36145 ft | 500 kts | 282° |
| 2026-05-01 14:49 | 52.35487 | -6.82447 | 36143 ft | 500 kts | 282° |
| 2026-05-01 14:50 | 52.39679 | -7.04105 | 36149 ft | 500 kts | 282° |
| 2026-05-01 14:51 | 52.42801 | -7.20395 | 36140 ft | 500 kts | 282° |
| 2026-05-01 14:52 | 52.45902 | -7.36723 | 36118 ft | 500 kts | 282° |
| 2026-05-01 14:53 | 52.48969 | -7.53008 | 36112 ft | 501 kts | 282° |
| 2026-05-01 14:53 | 52.51017 | -7.63957 | 36109 ft | 501 kts | 282° |
| 2026-05-01 14:54 | 52.53044 | -7.74869 | 36096 ft | 501 kts | 282° |
| 2026-05-01 14:54 | 52.55070 | -7.85832 | 36095 ft | 502 kts | 282° |
| 2026-05-01 14:55 | 52.57080 | -7.96771 | 36095 ft | 502 kts | 282° |
| 2026-05-01 14:55 | 52.59098 | -8.07827 | 36086 ft | 502 kts | 282° |
| 2026-05-01 14:56 | 52.61085 | -8.18769 | 36082 ft | 502 kts | 282° |
| 2026-05-01 14:56 | 52.63067 | -8.29758 | 36075 ft | 502 kts | 282° |
| 2026-05-01 14:57 | 52.65050 | -8.40818 | 36076 ft | 502 kts | 282° |
| 2026-05-01 14:57 | 52.67991 | -8.57347 | 36098 ft | 501 kts | 282° |
| 2026-05-01 14:58 | 52.69938 | -8.68369 | 36068 ft | 502 kts | 282° |
| 2026-05-01 14:58 | 52.71872 | -8.79390 | 36069 ft | 502 kts | 282° |
| 2026-05-01 14:59 | 52.73809 | -8.90491 | 36051 ft | 502 kts | 282° |
| 2026-05-01 14:59 | 52.75719 | -9.01509 | 36047 ft | 501 kts | 281° |
| 2026-05-01 15:00 | 52.78573 | -9.18102 | 36083 ft | 501 kts | 282° |
| 2026-05-01 15:01 | 52.80460 | -9.29164 | 36075 ft | 500 kts | 282° |
| 2026-05-01 15:01 | 52.82333 | -9.40208 | 36080 ft | 499 kts | 282° |
| 2026-05-01 15:02 | 52.84192 | -9.51242 | 36065 ft | 498 kts | 282° |
| 2026-05-01 15:02 | 52.86039 | -9.62276 | 36070 ft | 498 kts | 281° |
| 2026-05-01 15:03 | 52.87883 | -9.73359 | 36064 ft | 499 kts | 282° |
| 2026-05-01 15:03 | 52.89710 | -9.84415 | 36060 ft | 498 kts | 282° |
| 2026-05-01 15:04 | 52.91524 | -9.95461 | 36056 ft | 498 kts | 282° |
| 2026-05-01 15:04 | 52.93324 | -10.06492 | 36056 ft | 498 kts | 281° |
| 2026-05-01 15:05 | 52.95120 | -10.17570 | 36065 ft | 498 kts | 281° |
| 2026-05-01 15:05 | 52.96908 | -10.28681 | 36053 ft | 500 kts | 282° |
| 2026-05-01 15:06 | 52.98690 | -10.39819 | 36057 ft | 500 kts | 281° |
| 2026-05-01 15:06 | 53.00467 | -10.50998 | 36060 ft | 501 kts | 281° |
| 2026-05-01 15:07 | 53.02230 | -10.62173 | 36065 ft | 502 kts | 281° |
| 2026-05-01 15:07 | 53.03993 | -10.73417 | 36066 ft | 502 kts | 281° |
| 2026-05-01 15:08 | 53.05740 | -10.84640 | 36069 ft | 502 kts | 281° |
| 2026-05-01 15:08 | 53.07477 | -10.95873 | 36072 ft | 502 kts | 281° |
| 2026-05-01 15:09 | 53.09203 | -11.07110 | 36073 ft | 502 kts | 281° |
| 2026-05-01 15:09 | 53.10925 | -11.18399 | 36066 ft | 502 kts | 281° |
| 2026-05-01 15:10 | 53.12623 | -11.29622 | 36083 ft | 502 kts | 281° |
| 2026-05-01 15:10 | 53.15171 | -11.46592 | 36055 ft | 502 kts | 281° |
| 2026-05-01 15:11 | 53.17673 | -11.63441 | 36046 ft | 501 kts | 281° |
| 2026-05-01 15:12 | 53.19338 | -11.74756 | 36034 ft | 502 kts | 281° |
| 2026-05-01 15:12 | 53.21808 | -11.91687 | 36049 ft | 502 kts | 282° |
| 2026-05-01 15:14 | 53.25882 | -12.20027 | 36043 ft | 502 kts | 281° |
| 2026-05-01 15:14 | 53.28292 | -12.37049 | 36043 ft | 502 kts | 281° |
| 2026-05-01 15:15 | 53.31456 | -12.59681 | 36048 ft | 500 kts | 282° |
| 2026-05-01 15:16 | 53.34576 | -12.82346 | 36029 ft | 500 kts | 282° |
| 2026-05-01 15:18 | 53.38411 | -13.10682 | 36038 ft | 500 kts | 282° |
| 2026-05-01 15:19 | 53.41429 | -13.33374 | 36040 ft | 499 kts | 282° |
| 2026-05-01 15:19 | 53.43661 | -13.50399 | 36045 ft | 499 kts | 282° |
| 2026-05-01 15:20 | 53.45878 | -13.67486 | 36055 ft | 499 kts | 282° |
| 2026-05-01 15:21 | 53.47348 | -13.78887 | 36071 ft | 498 kts | 283° |
| 2026-05-01 15:21 | 53.48799 | -13.90203 | 36079 ft | 498 kts | 282° |
| 2026-05-01 15:22 | 53.50019 | -14.07479 | 36069 ft | 498 kts | 272° |
| 2026-05-01 15:22 | 53.50035 | -14.19159 | 36086 ft | 498 kts | 271° |
| 2026-05-01 15:23 | 53.50088 | -14.30724 | 36083 ft | 498 kts | 272° |
| 2026-05-01 15:23 | 53.50115 | -14.42397 | 36098 ft | 498 kts | 271° |
| 2026-05-01 15:24 | 53.50118 | -14.54031 | 36107 ft | 498 kts | 271° |
| 2026-05-01 15:24 | 53.50107 | -14.65611 | 36111 ft | 497 kts | 273° |
| 2026-05-01 15:25 | 53.50088 | -14.77182 | 36116 ft | 497 kts | 272° |
| 2026-05-01 15:25 | 53.50056 | -14.88799 | 36124 ft | 496 kts | 272° |
| 2026-05-01 15:26 | 53.50054 | -15.00372 | 36110 ft | 494 kts | 276° |
| 2026-05-01 15:26 | 53.50667 | -15.11813 | 36116 ft | 493 kts | 277° |
| 2026-05-01 15:27 | 53.51292 | -15.23251 | 36136 ft | 493 kts | 278° |
| 2026-05-01 15:28 | 53.52266 | -15.40449 | 36147 ft | 493 kts | 278° |
| 2026-05-01 15:28 | 53.52910 | -15.51914 | 36152 ft | 493 kts | 278° |
| 2026-05-01 15:29 | 53.53858 | -15.69173 | 36158 ft | 493 kts | 278° |
| 2026-05-01 15:30 | 53.55074 | -15.92023 | 36166 ft | 491 kts | 278° |
| 2026-05-01 15:31 | 53.56801 | -16.26316 | 36160 ft | 490 kts | 278° |
| 2026-05-01 15:32 | 53.57888 | -16.49230 | 36164 ft | 490 kts | 278° |
| 2026-05-01 15:34 | 53.59427 | -16.83430 | 36167 ft | 489 kts | 277° |